Time;durP1;ratioP1;P1;durP2;ratioP2;P2;SDS_P1;SDS_P2;PMS_P1;PMS_P2;Temp;Humidity;BMP_temperature;BMP_pressure;BME280_temperature;BME280_humidity;BME280_pressure;Samples;Min_cycle;Max_cycle;Signal;HPM_P1;HPM_P2
2022/08/17 00:00:20;;;;;;;0.00;0.00;;;;;;;19.28;89.55;99907.78;4991386;28;20266;-73
2022/08/17 00:03:15;;;;;;;0.00;0.00;;;;;;;19.29;89.51;99903.81;4990220;28;20186;-74
2022/08/17 00:05:46;;;;;;;0.20;0.20;;;;;;;19.24;89.04;99897.81;4991582;28;20214;-74
2022/08/17 00:08:13;;;;;;;0.00;0.00;;;;;;;19.25;89.23;99893.91;4991125;28;20213;-74
2022/08/17 00:10:41;;;;;;;0.00;0.00;;;;;;;19.23;89.70;99890.69;4991100;28;20625;-73
2022/08/17 00:13:10;;;;;;;0.00;0.00;;;;;;;19.22;89.67;99903.75;4991526;28;20209;-75
2022/08/17 00:15:35;;;;;;;0.00;0.00;;;;;;;19.22;89.64;99903.75;4991434;28;20193;-74
2022/08/17 00:18:01;;;;;;;0.10;0.10;;;;;;;19.17;90.10;99897.78;4991236;28;20175;-73
2022/08/17 00:20:26;;;;;;;0.00;0.00;;;;;;;19.13;90.58;99902.50;4991085;28;20179;-74
2022/08/17 00:23:11;;;;;;;2.47;2.37;;;;;;;19.03;91.28;99898.44;4991297;28;20210;-74
2022/08/17 00:25:38;;;;;;;0.00;0.00;;;;;;;19.02;91.84;99897.66;4991344;28;20221;-74
2022/08/17 00:28:05;;;;;;;1.30;1.30;;;;;;;19.07;92.20;99898.47;4989662;28;20209;-74
2022/08/17 00:30:30;;;;;;;0.00;0.00;;;;;;;19.07;92.10;99893.72;4991136;28;20722;-74
2022/08/17 00:32:56;;;;;;;0.10;0.10;;;;;;;19.03;91.86;99902.00;4991100;28;20203;-73
2022/08/17 00:35:22;;;;;;;0.00;0.00;;;;;;;19.00;92.29;99896.44;4991209;28;20209;-74
2022/08/17 00:37:50;;;;;;;0.00;0.00;;;;;;;19.01;93.25;99898.03;4990900;28;20177;-74
2022/08/17 00:40:15;;;;;;;0.00;0.00;;;;;;;19.10;94.38;99900.50;4991001;28;20175;-74
2022/08/17 00:42:42;;;;;;;0.20;0.10;;;;;;;19.09;93.06;99907.97;4990910;28;20186;-74
2022/08/17 00:45:10;;;;;;;0.00;0.00;;;;;;;18.97;92.15;99903.53;4991068;28;20182;-74
2022/08/17 00:47:35;;;;;;;0.20;0.20;;;;;;;18.84;92.69;99890.34;4990706;28;20202;-74
2022/08/17 00:50:01;;;;;;;0.00;0.00;;;;;;;18.61;94.07;99887.72;4990590;28;20193;-73
2022/08/17 00:52:36;;;;;;;0.27;0.20;;;;;;;18.38;95.58;99885.91;4990862;28;20217;-73
2022/08/17 00:55:03;;;;;;;0.00;0.00;;;;;;;18.21;97.17;99886.47;4990409;28;20188;-74
2022/08/17 00:57:36;;;;;;;0.00;0.00;;;;;;;18.18;97.88;99883.66;4994875;28;20208;-73
2022/08/17 01:00:11;;;;;;;0.00;0.00;;;;;;;18.29;98.67;99884.59;4994967;28;20170;-74
2022/08/17 01:02:41;;;;;;;0.00;0.00;;;;;;;18.35;97.85;99889.41;4994865;28;20625;-74
2022/08/17 01:05:09;;;;;;;1.53;1.50;;;;;;;18.31;96.80;99888.56;4995075;28;20192;-74
2022/08/17 01:07:34;;;;;;;0.00;0.00;;;;;;;18.30;96.78;99891.72;4994478;28;20264;-73
2022/08/17 01:10:04;;;;;;;0.20;0.20;;;;;;;18.29;97.27;99895.66;4994407;28;20181;-74
2022/08/17 01:12:30;;;;;;;0.00;0.00;;;;;;;18.20;97.20;99886.84;4994918;28;20227;-73
2022/08/17 01:14:55;;;;;;;0.00;0.00;;;;;;;18.21;96.75;99894.75;4994437;28;20178;-74
2022/08/17 01:17:21;;;;;;;0.00;0.00;;;;;;;18.27;96.38;99896.03;4994399;28;20186;-73
2022/08/17 01:19:46;;;;;;;0.00;0.00;;;;;;;18.35;95.96;99902.44;4994084;28;20182;-73
2022/08/17 01:22:11;;;;;;;0.83;0.83;;;;;;;18.41;95.51;99892.63;4994454;28;20176;-74
2022/08/17 01:24:43;;;;;;;0.00;0.00;;;;;;;18.42;94.90;99892.25;4994503;28;20171;-73
2022/08/17 01:27:09;;;;;;;0.10;0.10;;;;;;;18.39;94.19;99895.78;4993944;28;20217;-74
2022/08/17 01:29:38;;;;;;;0.30;0.30;;;;;;;18.35;93.99;99883.06;4993877;28;20243;-74
2022/08/17 01:32:05;;;;;;;0.00;0.00;;;;;;;18.39;94.29;99893.03;4994286;28;20281;-75
2022/08/17 01:34:31;;;;;;;0.00;0.00;;;;;;;18.42;93.23;99888.69;4994239;28;20187;-73
2022/08/17 01:36:57;;;;;;;0.10;0.10;;;;;;;18.39;93.07;99887.50;4994063;28;20633;-73
2022/08/17 01:39:36;;;;;;;0.00;0.00;;;;;;;18.35;93.51;99883.06;4993988;28;20169;-74
2022/08/17 01:42:22;;;;;;;0.10;0.10;;;;;;;18.41;93.92;99893.44;4992718;28;20183;-74
2022/08/17 01:44:51;;;;;;;0.00;0.00;;;;;;;18.32;93.55;99903.97;4994177;28;20188;-73
2022/08/17 01:47:17;;;;;;;0.00;0.00;;;;;;;18.24;94.46;99905.09;4993699;28;20742;-74
2022/08/17 01:49:42;;;;;;;0.00;0.00;;;;;;;18.26;95.11;99907.47;4993684;28;20173;-74
2022/08/17 01:52:10;;;;;;;0.00;0.00;;;;;;;18.24;96.11;99902.31;4993964;28;20248;-74
2022/08/17 01:54:38;;;;;;;0.00;0.00;;;;;;;18.32;96.93;99912.28;4992377;28;20625;-74
2022/08/17 01:57:03;;;;;;;0.20;0.20;;;;;;;18.39;96.11;99912.38;4993782;28;20173;-74
2022/08/17 01:59:29;;;;;;;0.00;0.00;;;;;;;18.35;95.22;99916.25;4993680;28;20549;-73
2022/08/17 02:01:54;;;;;;;0.00;0.00;;;;;;;18.33;95.05;99916.63;4993802;28;20403;-74
2022/08/17 02:04:20;;;;;;;0.00;0.00;;;;;;;18.38;95.07;99915.53;4993736;28;20691;-74
2022/08/17 02:06:45;;;;;;;0.00;0.00;;;;;;;18.30;95.02;99922.94;4993034;28;20696;-74
2022/08/17 02:09:11;;;;;;;0.00;0.00;;;;;;;18.30;94.61;99922.94;4993319;28;20673;-74
2022/08/17 02:11:38;;;;;;;0.00;0.00;;;;;;;18.26;93.91;99919.31;4993620;28;20188;-73
2022/08/17 02:14:07;;;;;;;0.17;0.17;;;;;;;18.26;93.23;99924.84;4993631;28;20182;-74
2022/08/17 02:16:35;;;;;;;0.00;0.00;;;;;;;18.29;93.07;99920.53;4993378;28;20261;-74
2022/08/17 02:19:00;;;;;;;0.00;0.00;;;;;;;18.25;93.55;99917.75;4992823;28;20182;-74
2022/08/17 02:21:26;;;;;;;0.00;0.00;;;;;;;18.29;94.55;99918.56;4993275;28;20308;-74
2022/08/17 02:23:52;;;;;;;0.00;0.00;;;;;;;18.23;93.78;99911.78;4992039;28;20218;-73
2022/08/17 02:26:17;;;;;;;0.00;0.00;;;;;;;18.18;94.18;99917.63;4992355;28;20177;-74
2022/08/17 02:28:42;;;;;;;0.33;0.33;;;;;;;18.19;94.67;99910.94;4992543;28;20208;-75
2022/08/17 02:31:11;;;;;;;0.00;0.00;;;;;;;18.16;95.22;99917.22;4993172;28;20903;-74
2022/08/17 02:33:38;;;;;;;0.00;0.00;;;;;;;18.09;96.01;99911.59;4993318;28;20719;-74
2022/08/17 02:36:05;;;;;;;0.00;0.00;;;;;;;17.97;96.54;99903.53;4993147;28;20201;-74
2022/08/17 02:38:30;;;;;;;0.00;0.00;;;;;;;17.66;97.14;99910.97;4992419;28;20181;-74
2022/08/17 02:40:57;;;;;;;0.00;0.00;;;;;;;17.81;97.75;99907.28;4993295;28;20186;-74
2022/08/17 02:43:24;;;;;;;0.00;0.00;;;;;;;18.03;96.85;99897.28;4993107;28;20183;-74
2022/08/17 02:45:50;;;;;;;0.00;0.00;;;;;;;18.11;95.30;99898.19;4992912;28;20205;-74
2022/08/17 02:48:15;;;;;;;0.00;0.00;;;;;;;18.10;94.23;99902.13;4989166;28;20297;-74
2022/08/17 02:50:41;;;;;;;0.03;0.03;;;;;;;17.94;94.68;99894.03;4992526;28;20288;-73
2022/08/17 02:53:06;;;;;;;0.23;0.23;;;;;;;17.97;94.52;99895.25;4992975;28;20235;-74
2022/08/17 02:55:35;;;;;;;0.00;0.00;;;;;;;18.00;94.71;99895.28;4991908;28;20185;-74
2022/08/17 02:58:02;;;;;;;0.00;0.00;;;;;;;18.02;94.22;99900.44;4992739;28;20261;-74
2022/08/17 03:00:36;;;;;;;0.10;0.10;;;;;;;17.91;94.25;99896.72;4992366;28;20174;-74
2022/08/17 03:03:04;;;;;;;0.00;0.00;;;;;;;17.87;95.22;99895.88;4992914;28;20180;-74
2022/08/17 03:05:31;;;;;;;0.00;0.00;;;;;;;17.86;95.30;99902.59;4992721;28;20699;-74
2022/08/17 03:07:57;;;;;;;0.00;0.00;;;;;;;17.84;95.43;99903.75;4992374;28;20284;-74
2022/08/17 03:10:24;;;;;;;0.00;0.00;;;;;;;17.86;95.32;99902.59;4992415;28;20663;-74
2022/08/17 03:12:51;;;;;;;0.00;0.00;;;;;;;17.84;95.00;99905.72;4992518;28;20165;-74
2022/08/17 03:15:18;;;;;;;0.00;0.00;;;;;;;17.77;94.89;99917.47;4992640;28;20178;-72
2022/08/17 03:17:43;;;;;;;0.00;0.00;;;;;;;17.66;94.30;99910.97;4991623;28;20196;-74
2022/08/17 03:20:09;;;;;;;2.27;2.10;;;;;;;17.58;94.50;99909.25;4992192;28;20182;-74
2022/08/17 03:22:38;;;;;;;0.00;0.00;;;;;;;17.58;95.40;99903.75;4991172;28;20515;-75
2022/08/17 03:25:05;;;;;;;0.00;0.00;;;;;;;17.63;96.07;99917.22;4992427;28;20200;-75
2022/08/17 03:27:30;;;;;;;0.00;0.00;;;;;;;17.64;95.97;99910.53;4991783;28;20301;-74
2022/08/17 03:29:56;;;;;;;0.00;0.00;;;;;;;17.64;95.39;99910.53;4992069;28;20268;-73
2022/08/17 03:32:21;;;;;;;0.00;0.00;;;;;;;17.62;95.17;99904.56;4992300;28;20212;-74
2022/08/17 03:34:47;;;;;;;0.00;0.00;;;;;;;17.59;94.88;99915.59;4992216;28;20698;-74
2022/08/17 03:37:13;;;;;;;0.00;0.00;;;;;;;17.48;95.02;99913.44;4992044;28;20173;-74
2022/08/17 03:39:38;;;;;;;0.00;0.00;;;;;;;17.45;95.58;99911.44;4991853;28;20169;-74
2022/08/17 03:42:12;;;;;;;0.00;0.00;;;;;;;17.45;96.78;99911.44;4991876;28;20171;-74
2022/08/17 03:44:38;;;;;;;0.00;0.00;;;;;;;17.50;98.48;99916.66;4992143;28;20679;-75
2022/08/17 03:57:59;;;;;;;0.27;0.27;;;;;;;17.17;98.86;99900.72;4991983;28;20224;-74
2022/08/17 04:00:26;;;;;;;0.20;0.20;;;;;;;17.00;100.00;99903.97;4991938;28;20174;-74
2022/08/17 04:02:52;;;;;;;0.30;0.30;;;;;;;16.93;100.00;99903.88;4991638;28;20181;-74
2022/08/17 04:05:17;;;;;;;0.00;0.00;;;;;;;16.94;100.00;99906.25;4991905;28;20184;-75
2022/08/17 04:07:43;;;;;;;0.00;0.00;;;;;;;17.01;100.00;99913.84;4991613;28;20680;-74
2022/08/17 04:10:08;;;;;;;0.00;0.00;;;;;;;17.07;100.00;99909.63;4989340;28;20186;-75
2022/08/17 04:12:53;;;;;;;0.00;0.00;;;;;;;17.16;100.00;99912.94;4990779;28;20209;-74
2022/08/17 04:15:20;;;;;;;0.00;0.00;;;;;;;17.12;100.00;99906.56;4991582;28;20173;-75
2022/08/17 04:17:46;;;;;;;0.00;0.00;;;;;;;17.09;100.00;99906.50;4991386;28;20188;-74
2022/08/17 04:20:13;;;;;;;0.00;0.00;;;;;;;17.14;100.00;99912.50;4991177;28;20220;-74
2022/08/17 04:22:53;;;;;;;0.00;0.00;;;;;;;17.15;100.00;99911.34;4991449;28;20177;-75
2022/08/17 04:25:19;;;;;;;0.00;0.00;;;;;;;17.18;100.00;99920.84;4991419;28;20235;-74
2022/08/17 04:27:44;;;;;;;0.00;0.00;;;;;;;17.20;100.00;99921.25;4990952;28;20582;-75
2022/08/17 04:30:10;;;;;;;0.00;0.00;;;;;;;17.22;100.00;99918.97;4991059;28;20209;-74
2022/08/17 04:32:52;;;;;;;0.00;0.00;;;;;;;17.21;100.00;99926.44;4991313;28;20173;-73
2022/08/17 04:35:20;;;;;;;0.00;0.00;;;;;;;17.22;100.00;99930.78;4991200;28;20185;-74
2022/08/17 04:37:46;;;;;;;0.00;0.00;;;;;;;17.25;100.00;99921.78;4990026;28;20530;-75
2022/08/17 04:43:07;;;;;;;0.00;0.00;;;;;;;17.35;100.00;99927.81;4991385;28;20169;-74
2022/08/17 04:45:37;;;;;;;0.00;0.00;;;;;;;17.37;100.00;99931.81;4991349;28;20157;-75
2022/08/17 04:48:02;;;;;;;0.00;0.00;;;;;;;17.40;100.00;99933.84;4991059;28;20197;-75
2022/08/17 04:50:27;;;;;;;0.00;0.00;;;;;;;17.48;100.00;99934.75;4990862;28;20173;-75
2022/08/17 04:52:53;;;;;;;0.00;0.00;;;;;;;17.44;100.00;99940.22;4991145;28;20208;-74
2022/08/17 04:55:18;;;;;;;0.00;0.00;;;;;;;17.16;100.00;99937.78;4989730;28;20187;-74
2022/08/17 04:57:43;;;;;;;0.00;0.00;;;;;;;17.07;100.00;99942.75;4990964;28;20178;-74
2022/08/17 05:00:09;;;;;;;0.00;0.00;;;;;;;17.20;100.00;99937.81;4990988;28;20173;-75
2022/08/17 05:02:47;;;;;;;0.00;0.00;;;;;;;17.41;100.00;99940.16;4992527;28;20176;-75
2022/08/17 05:05:20;;;;;;;0.00;0.00;;;;;;;17.56;100.00;99944.75;5000839;28;20180;-75
2022/08/17 05:07:45;;;;;;;0.00;0.00;;;;;;;17.67;100.00;99948.47;4991134;28;20209;-75
2022/08/17 05:10:11;;;;;;;0.00;0.00;;;;;;;17.68;99.63;99947.34;4991156;28;20196;-75
2022/08/17 05:12:36;;;;;;;0.00;0.00;;;;;;;17.49;100.00;99958.44;4991208;28;20529;-75
2022/08/17 05:15:02;;;;;;;0.00;0.00;;;;;;;17.56;100.00;99958.56;4991386;28;20166;-75
2022/08/17 05:17:27;;;;;;;0.00;0.00;;;;;;;17.75;100.00;99958.50;4991067;28;20179;-75
2022/08/17 05:19:53;;;;;;;0.20;0.20;;;;;;;17.88;100.00;99972.09;4990847;28;20245;-75
2022/08/17 05:22:18;;;;;;;0.00;0.00;;;;;;;17.90;100.00;99970.56;4991213;28;20264;-75
2022/08/17 05:24:43;;;;;;;0.00;0.00;;;;;;;17.92;99.77;99972.94;4991147;28;20177;-75
2022/08/17 05:27:09;;;;;;;0.00;0.00;;;;;;;17.95;99.85;99975.00;4990731;28;20165;-75
2022/08/17 05:29:35;;;;;;;0.00;0.00;;;;;;;17.99;100.00;99970.31;4989387;28;20176;-77
2022/08/17 05:32:10;;;;;;;0.10;0.10;;;;;;;18.06;100.00;99978.69;4991127;28;20197;-73
2022/08/17 05:34:36;;;;;;;0.00;0.00;;;;;;;18.14;98.94;99974.88;4990780;28;20180;-72
2022/08/17 05:37:03;;;;;;;0.00;0.00;;;;;;;18.13;98.03;99967.75;4991007;28;20292;-73
2022/08/17 05:39:28;;;;;;;0.00;0.00;;;;;;;18.25;98.90;99975.00;4990422;28;20265;-73
2022/08/17 05:41:53;;;;;;;0.00;0.00;;;;;;;18.29;97.77;99973.88;4992656;28;20239;-73
2022/08/17 05:44:19;;;;;;;0.00;0.00;;;;;;;18.37;97.11;99972.00;4993560;28;20173;-73
2022/08/17 05:46:49;;;;;;;0.00;0.00;;;;;;;18.39;95.85;99980.75;4992932;28;20176;-74
2022/08/17 05:49:21;;;;;;;0.00;0.00;;;;;;;18.49;96.52;99979.25;4994544;28;20216;-73
2022/08/17 05:51:55;;;;;;;0.00;0.00;;;;;;;18.54;95.63;99985.28;4994241;28;20173;-73
2022/08/17 05:54:38;;;;;;;0.00;0.00;;;;;;;18.58;94.93;99982.53;4992645;28;20169;-72
2022/08/17 05:57:30;;;;;;;0.73;0.73;;;;;;;18.63;96.07;99974.72;4993703;28;20180;-73
2022/08/17 06:00:05;;;;;;;0.00;0.00;;;;;;;18.68;96.40;99968.88;4993797;28;20231;-73
2022/08/17 06:02:57;;;;;;;0.00;0.00;;;;;;;18.79;96.95;99965.41;4994060;28;20739;-72
2022/08/17 06:05:37;;;;;;;0.00;0.00;;;;;;;18.86;96.90;99971.84;4992582;28;20172;-72
2022/08/17 06:08:18;;;;;;;0.00;0.00;;;;;;;18.95;97.08;99972.34;4993246;28;20212;-72
2022/08/17 06:10:57;;;;;;;0.00;0.00;;;;;;;19.04;97.35;99969.25;4993430;28;20173;-72
2022/08/17 06:13:41;;;;;;;0.00;0.00;;;;;;;19.20;96.27;99974.56;4993899;28;20173;-73
2022/08/17 06:16:12;;;;;;;0.00;0.00;;;;;;;19.32;93.46;99974.28;4993919;28;20743;-75
2022/08/17 06:19:12;;;;;;;0.00;0.00;;;;;;;19.45;92.99;99967.28;4993357;28;20170;-75
2022/08/17 06:21:41;;;;;;;0.00;0.00;;;;;;;19.58;93.56;99974.16;4996946;28;20240;-76
2022/08/17 06:24:22;;;;;;;0.00;0.00;;;;;;;19.71;93.05;99971.88;4994095;28;20618;-76
2022/08/17 06:26:49;;;;;;;0.00;0.00;;;;;;;19.88;92.21;99975.94;4993565;28;20535;-74
2022/08/17 06:29:42;;;;;;;0.00;0.00;;;;;;;20.02;91.93;99972.47;4993294;28;20585;-75
2022/08/17 06:32:11;;;;;;;0.00;0.00;;;;;;;20.07;91.16;99977.66;4993448;28;20178;-75
2022/08/17 06:34:38;;;;;;;0.00;0.00;;;;;;;20.02;91.04;99969.69;4993339;28;20887;-75
2022/08/17 06:37:39;;;;;;;0.00;0.00;;;;;;;20.06;87.47;99974.06;4993385;28;20202;-74
2022/08/17 06:40:10;;;;;;;0.00;0.00;;;;;;;20.19;87.37;99963.47;4992982;28;20178;-75
2022/08/17 06:42:47;;;;;;;0.00;0.00;;;;;;;20.35;86.01;99971.47;4999078;28;20178;-75
2022/08/17 06:45:32;;;;;;;0.00;0.00;;;;;;;20.39;85.13;99969.50;5001615;28;20191;-74
2022/08/17 06:48:23;;;;;;;0.00;0.00;;;;;;;20.49;84.83;99969.56;5012126;28;20220;-74
2022/08/17 06:50:58;;;;;;;1.00;1.00;;;;;;;20.56;83.12;99968.03;5012640;28;20190;-75
2022/08/17 06:53:30;;;;;;;0.00;0.00;;;;;;;20.73;83.96;99965.31;5009989;28;20176;-74
2022/08/17 06:56:12;;;;;;;0.00;0.00;;;;;;;20.96;82.53;99966.94;5011641;28;20640;-76
2022/08/17 06:58:40;;;;;;;0.00;0.00;;;;;;;21.03;81.13;99965.00;5011213;28;20553;-75
2022/08/17 07:01:17;;;;;;;0.00;0.00;;;;;;;21.25;81.06;99976.97;5012407;28;20173;-74
2022/08/17 07:03:53;;;;;;;0.00;0.00;;;;;;;21.36;80.12;99971.41;5008013;28;20204;-74
2022/08/17 07:06:27;;;;;;;0.00;0.00;;;;;;;21.50;79.16;99984.53;4999888;28;20189;-74
2022/08/17 07:09:09;;;;;;;0.00;0.00;;;;;;;21.60;79.95;99978.97;4992008;28;20630;-75
2022/08/17 07:11:47;;;;;;;0.00;0.00;;;;;;;21.64;79.14;99979.75;4992505;28;20181;-75
2022/08/17 07:14:28;;;;;;;0.43;0.43;;;;;;;21.61;77.95;99974.22;4992396;28;20165;-75
2022/08/17 07:16:57;;;;;;;0.00;0.00;;;;;;;21.56;78.01;99980.19;4992062;28;20669;-75
2022/08/17 07:19:30;;;;;;;0.00;0.00;;;;;;;21.65;78.45;99980.56;4991932;28;20241;-75
2022/08/17 07:22:21;;;;;;;0.00;0.00;;;;;;;21.68;78.29;99982.53;5001416;28;20172;-74
2022/08/17 07:24:46;;;;;;;0.00;0.00;;;;;;;21.65;77.87;99983.34;4992076;28;20576;-75
2022/08/17 07:27:18;;;;;;;0.53;0.53;;;;;;;21.74;78.57;99980.97;4991831;28;20162;-74
2022/08/17 07:29:53;;;;;;;0.00;0.00;;;;;;;21.81;77.64;99982.94;4991345;28;20182;-75
2022/08/17 07:32:33;;;;;;;0.00;0.00;;;;;;;21.85;76.96;99989.31;4992014;28;20222;-75
2022/08/17 07:35:09;;;;;;;0.30;0.30;;;;;;;21.99;77.71;99992.06;4992000;28;20262;-75
2022/08/17 07:37:45;;;;;;;0.00;0.00;;;;;;;22.12;76.51;99992.44;4991722;28;20169;-75
2022/08/17 07:40:36;;;;;;;0.00;0.00;;;;;;;22.21;74.56;99995.63;4991408;28;20169;-75
2022/08/17 07:43:04;;;;;;;0.00;0.00;;;;;;;22.21;73.04;99992.84;4991409;28;20276;-75
2022/08/17 07:48:19;;;;;;;0.00;0.00;;;;;;;22.29;72.00;99986.06;4991911;28;20204;-75
2022/08/17 07:50:45;;;;;;;0.23;0.23;;;;;;;22.37;72.32;99986.81;4990213;28;20192;-75
2022/08/17 07:53:24;;;;;;;0.00;0.00;;;;;;;22.45;73.31;100000.34;4991588;28;20629;-75
2022/08/17 07:55:52;;;;;;;0.00;0.00;;;;;;;22.59;72.87;99998.69;4990530;28;20173;-76
2022/08/17 07:58:21;;;;;;;0.00;0.00;;;;;;;22.76;72.11;99995.84;4991200;28;20203;-75
2022/08/17 08:01:08;;;;;;;0.00;0.00;;;;;;;22.91;70.87;100004.94;4989894;28;20204;-74
2022/08/17 08:03:42;;;;;;;0.00;0.00;;;;;;;23.04;70.38;99997.72;4990835;28;20177;-75
2022/08/17 08:06:20;;;;;;;0.00;0.00;;;;;;;23.17;69.80;100000.03;4991379;28;20180;-74
2022/08/17 08:08:51;;;;;;;0.00;0.00;;;;;;;23.29;71.04;99999.53;4990390;28;20295;-74
2022/08/17 08:11:32;;;;;;;0.00;0.00;;;;;;;23.38;68.83;100000.66;4989949;28;20505;-74
2022/08/17 08:14:28;;;;;;;0.00;0.00;;;;;;;23.54;69.11;99994.56;4986746;28;20185;-75
2022/08/17 08:17:03;;;;;;;0.00;0.00;;;;;;;23.66;69.29;100007.25;4990691;28;20228;-75
2022/08/17 08:19:30;;;;;;;0.00;0.00;;;;;;;23.78;70.29;100003.97;4990385;28;20176;-75
2022/08/17 08:22:09;;;;;;;0.00;0.00;;;;;;;23.81;69.80;100003.16;4991021;28;20173;-74
2022/08/17 08:25:06;;;;;;;0.00;0.00;;;;;;;23.78;69.12;100000.41;4991060;28;20227;-74
2022/08/17 08:27:48;;;;;;;0.00;0.00;;;;;;;23.80;68.50;100003.56;4990621;28;20211;-74
2022/08/17 08:30:18;;;;;;;0.00;0.00;;;;;;;23.89;70.78;100007.47;4990633;28;20625;-74
2022/08/17 08:32:55;;;;;;;0.00;0.00;;;;;;;23.95;69.25;100005.00;4990925;28;20181;-74
2022/08/17 08:35:33;;;;;;;0.00;0.00;;;;;;;24.11;69.49;100008.03;4990946;28;20188;-73
2022/08/17 08:38:06;;;;;;;0.00;0.00;;;;;;;24.30;68.64;100003.88;4990658;28;20217;-74
2022/08/17 08:41:00;;;;;;;0.00;0.00;;;;;;;24.51;67.39;100003.66;4990884;28;20659;-74
2022/08/17 08:43:50;;;;;;;0.10;0.10;;;;;;;24.67;66.84;100000.28;4990583;28;20197;-74
2022/08/17 08:46:24;;;;;;;0.00;0.00;;;;;;;24.85;67.00;100005.63;4990768;28;20200;-74
2022/08/17 08:49:04;;;;;;;0.50;0.50;;;;;;;25.02;67.30;100007.41;4988878;28;20204;-74
2022/08/17 08:51:45;;;;;;;0.00;0.00;;;;;;;25.02;65.67;99999.03;4990792;28;20550;-75
2022/08/17 08:54:39;;;;;;;0.00;0.00;;;;;;;25.07;66.09;100000.56;4989344;28;20181;-74
2022/08/17 08:57:17;;;;;;;0.00;0.00;;;;;;;25.04;65.46;100005.00;4989516;28;20220;-75
2022/08/17 09:00:03;;;;;;;0.00;0.00;;;;;;;25.09;65.41;100006.53;4990498;28;20184;-75
2022/08/17 09:02:32;;;;;;;0.00;0.00;;;;;;;25.27;65.30;100009.84;4990528;28;20628;-75
2022/08/17 09:05:16;;;;;;;0.00;0.00;;;;;;;25.33;65.38;100005.41;4990651;28;20173;-75
2022/08/17 09:07:57;;;;;;;0.00;0.00;;;;;;;25.46;65.07;100006.41;4990342;28;20212;-75
2022/08/17 09:10:33;;;;;;;1.07;0.97;;;;;;;25.70;65.20;100012.03;4990399;28;20177;-74
2022/08/17 09:13:20;;;;;;;0.00;0.00;;;;;;;25.89;64.97;100011.28;4990550;28;20242;-75
2022/08/17 09:15:53;;;;;;;0.00;0.00;;;;;;;26.09;64.01;100002.94;4991172;28;20265;-75
2022/08/17 09:18:32;;;;;;;0.00;0.00;;;;;;;26.23;63.20;100008.28;4992821;28;20174;-74
2022/08/17 09:21:16;;;;;;;0.00;0.00;;;;;;;26.37;63.11;100010.84;4989042;28;20272;-74
2022/08/17 09:24:18;;;;;;;0.00;0.00;;;;;;;26.53;60.50;100004.53;4991104;28;20182;-75
2022/08/17 09:27:46;;;;;;;0.00;0.00;;;;;;;26.62;57.33;100006.78;4992748;28;20176;-75
2022/08/17 09:30:12;;;;;;;0.00;0.00;;;;;;;26.84;53.47;99998.69;4950862;29;20189;-74
2022/08/17 09:32:50;;;;;;;0.07;0.07;;;;;;;26.91;52.48;100009.78;4952859;29;20262;-74
2022/08/17 09:35:28;;;;;;;0.10;0.00;;;;;;;26.98;51.58;100007.59;4965566;28;20197;-74
2022/08/17 09:38:19;;;;;;;0.00;0.00;;;;;;;27.16;51.56;100009.22;4974962;28;20212;-74
2022/08/17 09:41:09;;;;;;;0.00;0.00;;;;;;;27.32;51.87;100012.06;4973437;28;20166;-75
2022/08/17 09:43:40;;;;;;;0.30;0.30;;;;;;;27.48;51.01;100003.66;4974588;28;20265;-74
2022/08/17 09:46:28;;;;;;;0.13;0.13;;;;;;;27.64;49.67;100000.13;4974708;28;20592;-74
2022/08/17 09:49:13;;;;;;;0.00;0.00;;;;;;;27.71;48.65;99999.91;4973271;28;20226;-74
2022/08/17 09:52:09;;;;;;;0.00;0.00;;;;;;;27.73;48.98;100000.25;4973935;28;20206;-74
2022/08/17 09:54:38;;;;;;;0.00;0.00;;;;;;;27.78;49.69;99991.34;4974359;28;20229;-74
2022/08/17 09:57:26;;;;;;;0.00;0.00;;;;;;;27.76;48.33;99988.16;4973919;28;20213;-75
2022/08/17 10:00:15;;;;;;;0.00;0.00;;;;;;;27.80;48.92;99988.09;4973969;28;20187;-74
2022/08/17 10:02:40;;;;;;;0.00;0.00;;;;;;;27.98;49.26;99988.41;4974348;28;20214;-74
2022/08/17 10:05:35;;;;;;;0.00;0.00;;;;;;;27.93;48.27;99988.16;4974262;28;20259;-74
2022/08/17 10:08:07;;;;;;;0.00;0.00;;;;;;;28.06;47.18;99986.97;4979903;28;20206;-74
2022/08/17 10:10:42;;;;;;;0.00;0.00;;;;;;;28.07;47.41;99976.53;4987310;28;20199;-74
2022/08/17 10:13:35;;;;;;;1.50;1.40;;;;;;;28.38;46.97;99972.09;4993257;28;20212;-74
2022/08/17 10:16:18;;;;;;;0.10;0.10;;;;;;;28.43;45.96;99967.94;4987870;28;20589;-74
2022/08/17 10:19:02;;;;;;;0.93;0.93;;;;;;;28.37;46.26;99976.13;4992454;28;20178;-73
2022/08/17 10:27:11;;;;;;;0.20;0.20;;;;;;;28.68;44.19;99955.97;4992687;28;20189;-74
2022/08/17 10:29:43;;;;;;;0.00;0.00;;;;;;;28.68;43.46;99953.94;4992828;28;20190;-74
2022/08/17 10:32:15;;;;;;;0.00;0.00;;;;;;;28.73;44.05;99953.38;4993057;28;20175;-74
2022/08/17 10:34:51;;;;;;;0.00;0.00;;;;;;;28.91;46.47;99952.06;4991903;28;20175;-75
2022/08/17 10:37:47;;;;;;;0.40;0.40;;;;;;;28.80;44.92;99960.03;4993107;28;20362;-75
2022/08/17 10:40:16;;;;;;;0.00;0.00;;;;;;;28.65;45.38;99946.41;4992832;28;20221;-74
2022/08/17 10:43:11;;;;;;;0.00;0.00;;;;;;;28.86;45.88;99952.59;4993008;28;20657;-74
2022/08/17 10:46:01;;;;;;;0.83;0.83;;;;;;;28.70;45.64;99942.25;4992945;28;20180;-74
2022/08/17 10:48:32;;;;;;;0.00;0.00;;;;;;;28.67;45.29;99954.38;4991521;28;20214;-74
2022/08/17 10:50:59;;;;;;;0.00;0.00;;;;;;;28.84;44.84;99953.06;4991950;28;20183;-73
2022/08/17 10:53:30;;;;;;;0.00;0.00;;;;;;;28.79;45.17;99950.81;4995070;28;20172;-73
2022/08/17 10:56:11;;;;;;;0.00;0.00;;;;;;;28.77;45.24;99944.81;4998722;28;20176;-73
2022/08/17 10:58:52;;;;;;;0.00;0.00;;;;;;;28.78;45.56;99937.97;4992829;28;20208;-73
2022/08/17 11:01:42;;;;;;;0.00;0.00;;;;;;;28.80;46.26;99941.13;4991153;28;20282;-73
2022/08/17 11:04:16;;;;;;;7.20;0.43;;;;;;;28.71;45.88;99936.16;4993159;28;20830;-73
2022/08/17 11:07:26;;;;;;;0.00;0.00;;;;;;;29.11;45.80;99938.59;4992773;28;20680;-74
2022/08/17 11:10:00;;;;;;;0.00;0.00;;;;;;;29.47;44.30;99937.44;4960625;28;20232;-73
2022/08/17 11:12:36;;;;;;;0.00;0.00;;;;;;;29.73;43.94;99936.16;4992935;28;20711;-73
2022/08/17 11:15:33;;;;;;;0.50;0.50;;;;;;;29.90;42.03;99946.00;4992473;28;20177;-73
2022/08/17 11:18:11;;;;;;;0.13;0.13;;;;;;;29.46;42.83;99928.22;4991020;28;20188;-74
2022/08/17 11:21:05;;;;;;;0.00;0.00;;;;;;;29.45;42.83;99929.41;4992206;28;20208;-74
2022/08/17 11:23:33;;;;;;;0.07;0.07;;;;;;;29.54;41.38;99926.75;4977714;28;20250;-73
2022/08/17 11:26:02;;;;;;;0.00;0.00;;;;;;;29.40;42.40;99920.78;4992495;28;20238;-74
2022/08/17 11:28:34;;;;;;;0.00;0.00;;;;;;;29.62;43.99;99927.25;4992122;28;20668;-73
2022/08/17 11:31:06;;;;;;;0.23;0.23;;;;;;;29.47;43.83;99926.19;4992507;28;20177;-74
2022/08/17 11:33:31;;;;;;;0.03;0.03;;;;;;;29.23;43.98;99917.31;4992333;28;20176;-73
2022/08/17 11:36:08;;;;;;;0.00;0.00;;;;;;;29.63;44.77;99923.22;4992485;28;20184;-73
2022/08/17 11:39:10;;;;;;;0.00;0.00;;;;;;;29.89;43.21;99918.28;4991318;28;20674;-73
2022/08/17 11:42:03;;;;;;;0.20;0.10;;;;;;;29.42;42.76;99916.25;4992197;28;20188;-73
2022/08/17 11:44:37;;;;;;;0.10;0.10;;;;;;;29.51;42.13;99921.22;4992222;28;20616;-73
2022/08/17 11:53:38;;;;;;;0.00;0.00;;;;;;;29.66;42.56;99913.06;4992133;28;20212;-73
2022/08/17 11:56:28;;;;;;;0.00;0.00;;;;;;;29.92;41.25;99909.69;4992032;28;20197;-73
2022/08/17 11:58:55;;;;;;;0.00;0.00;;;;;;;30.03;41.91;99906.50;4991510;28;20641;-74
2022/08/17 12:01:25;;;;;;;0.00;0.00;;;;;;;29.65;42.41;99903.03;4991988;28;20169;-73
2022/08/17 12:03:55;;;;;;;0.00;0.00;;;;;;;29.81;43.12;99903.69;4992032;28;20176;-73
2022/08/17 12:06:42;;;;;;;0.03;0.03;;;;;;;29.61;43.36;99903.16;4991756;28;20688;-72
2022/08/17 12:09:12;;;;;;;0.00;0.00;;;;;;;29.78;42.99;99900.97;4991430;28;20219;-73
2022/08/17 12:11:58;;;;;;;0.20;0.20;;;;;;;29.93;42.56;99897.19;4991583;28;20197;-73
2022/08/17 12:14:27;;;;;;;0.00;0.00;;;;;;;29.81;43.64;99894.44;4991975;28;20182;-73
2022/08/17 12:17:06;;;;;;;0.00;0.00;;;;;;;30.04;43.37;99896.81;4991323;28;20177;-74
2022/08/17 12:19:33;;;;;;;0.00;0.00;;;;;;;29.99;42.62;99900.22;4987638;28;20656;-73
2022/08/17 12:22:19;;;;;;;0.00;0.00;;;;;;;29.76;42.64;99904.25;4986124;28;20185;-73
2022/08/17 12:25:24;;;;;;;0.00;0.00;;;;;;;29.91;43.52;99905.31;4999090;28;20206;-74
2022/08/17 12:27:50;;;;;;;0.00;0.00;;;;;;;29.79;41.69;99892.06;4997870;28;20197;-74
2022/08/17 12:30:18;;;;;;;0.00;0.00;;;;;;;29.72;41.41;99895.16;4994769;28;20177;-73